createdAt,value
2018-07-21T05:15:54.826Z,97413.77
2018-07-21T05:16:26.429Z,97411.61
2018-07-21T05:16:58.023Z,97412.91
2018-07-21T05:17:29.632Z,97410.78
2018-07-21T05:18:01.229Z,97412.97
2018-07-21T05:18:32.837Z,97415.55
2018-07-21T05:19:04.446Z,97410.88
2018-07-21T05:19:36.065Z,97412.63
2018-07-21T05:20:07.714Z,97413.89
2018-07-21T05:20:39.308Z,97409.63
2018-07-21T05:21:10.896Z,97407.09
2018-07-21T05:21:42.496Z,97412.20
2018-07-21T05:22:14.111Z,97407.53
2018-07-21T05:22:45.724Z,97408.39
2018-07-21T05:23:17.314Z,97405.46
2018-07-21T05:23:48.934Z,97406.34
2018-07-21T05:24:20.612Z,97413.98
2018-07-21T05:24:52.257Z,97410.58
2018-07-21T05:25:23.882Z,97398.50
2018-07-21T05:25:55.459Z,97407.69
2018-07-21T05:26:27.073Z,97414.87
2018-07-21T05:26:58.681Z,97412.75
2018-07-21T05:27:30.286Z,97412.75
2018-07-21T05:28:01.896Z,97410.66
2018-07-21T05:28:33.489Z,97415.77
2018-07-21T05:29:05.064Z,97415.36
2018-07-21T05:29:36.697Z,97409.15
2018-07-21T05:30:08.297Z,97417.92
2018-07-21T05:30:39.890Z,97412.81
2018-07-21T05:31:11.481Z,97417.06
2018-07-21T05:31:43.094Z,97423.04
2018-07-21T05:32:14.705Z,97421.34
2018-07-21T05:32:46.297Z,97415.39
2018-07-21T05:33:17.876Z,97421.34
2018-07-21T05:33:49.498Z,97417.09
2018-07-21T05:34:21.088Z,97418.41
2018-07-21T05:34:52.725Z,97419.69
2018-07-21T05:35:24.337Z,97408.39
2018-07-21T05:35:55.934Z,97415.39
2018-07-21T05:36:27.525Z,97420.50
2018-07-21T05:36:59.153Z,97410.95
2018-07-21T05:37:30.746Z,97421.78
2018-07-21T05:38:02.355Z,97418.80
2018-07-21T05:38:33.989Z,97406.70
2018-07-21T05:39:05.619Z,97422.25
2018-07-21T05:39:37.234Z,97414.58
2018-07-21T05:40:08.843Z,97418.85
2018-07-21T05:40:40.461Z,97422.25
2018-07-21T05:41:12.064Z,97421.01
2018-07-21T05:41:43.690Z,97422.69
2018-07-21T05:42:15.279Z,97427.31
2018-07-21T05:42:46.879Z,97428.22
2018-07-21T05:43:18.558Z,97426.47
2018-07-21T05:43:50.161Z,97424.80
2018-07-21T05:44:21.761Z,97430.31
2018-07-21T05:44:53.349Z,97425.61
2018-07-21T05:45:24.955Z,97424.34
2018-07-21T05:45:56.581Z,97429.87
2018-07-21T05:46:28.233Z,97428.16
2018-07-21T05:46:59.898Z,97428.59
2018-07-21T05:47:31.494Z,97423.46
2018-07-21T05:48:03.110Z,97422.60
2018-07-21T05:48:34.734Z,97425.59
2018-07-21T05:49:06.319Z,97430.71
2018-07-21T05:49:37.941Z,97423.46
2018-07-21T05:50:09.544Z,97429.44
2018-07-21T05:50:41.128Z,97427.30
2018-07-21T05:51:12.738Z,97421.77
2018-07-21T05:51:44.394Z,97427.73
2018-07-21T05:52:16.008Z,97425.61
2018-07-21T05:52:47.605Z,97426.89
2018-07-21T05:53:19.288Z,97427.31
2018-07-21T05:53:50.882Z,97420.50
2018-07-21T05:54:22.490Z,97413.51
2018-07-21T05:54:54.100Z,97414.78
2018-07-21T05:55:25.710Z,97426.89
2018-07-21T05:55:57.302Z,97426.45
2018-07-21T05:56:28.943Z,97422.20
2018-07-21T05:57:00.571Z,97421.34
2018-07-21T05:57:32.189Z,97425.17
2018-07-21T05:58:03.807Z,97420.50
2018-07-21T05:58:35.453Z,97423.46
2018-07-21T05:59:07.110Z,97426.45
2018-07-21T05:59:38.734Z,97414.36
2018-07-21T06:00:10.347Z,97421.78
2018-07-21T06:00:41.949Z,97426.47
2018-07-21T06:01:13.554Z,97428.17
2018-07-21T06:01:45.221Z,97421.77
2018-07-21T06:02:16.824Z,97421.78
2018-07-21T06:02:48.437Z,97420.92
2018-07-21T06:03:20.029Z,97416.23
2018-07-21T06:03:51.604Z,97423.04
2018-07-21T06:04:23.222Z,97415.81
2018-07-21T06:04:55.058Z,97425.59
2018-07-21T06:05:26.676Z,97420.06
2018-07-21T06:05:58.270Z,97418.78
2018-07-21T06:06:29.901Z,97418.78
2018-07-21T06:07:01.510Z,97420.06
2018-07-21T06:07:33.092Z,97419.22
2018-07-21T06:08:04.704Z,97417.92
2018-07-21T06:08:36.351Z,97425.16
2018-07-21T06:09:07.951Z,97419.63
2018-07-21T06:09:39.573Z,97418.77
2018-07-21T06:10:11.185Z,97417.48
2018-07-21T06:10:42.774Z,97409.91
2018-07-21T06:11:14.406Z,97421.74
2018-07-21T06:11:46.031Z,97408.96
2018-07-21T06:12:17.637Z,97417.05
2018-07-21T06:12:49.282Z,97416.63
2018-07-21T06:13:20.883Z,97418.75
2018-07-21T06:13:52.501Z,97419.61
2018-07-21T06:14:24.148Z,97417.91
2018-07-21T06:14:55.801Z,97418.34
2018-07-21T06:15:27.417Z,97417.05
2018-07-21T06:15:59.034Z,97421.30
2018-07-21T06:16:30.630Z,97418.34
2018-07-21T06:17:02.359Z,97419.61
2018-07-21T06:17:33.898Z,97424.25
2018-07-21T06:18:05.484Z,97429.36
2018-07-21T06:18:37.133Z,97424.67
2018-07-21T06:19:08.768Z,97425.52
2018-07-21T06:19:40.385Z,97423.81
2018-07-21T06:20:11.982Z,97428.50
2018-07-21T06:20:43.586Z,97428.50
2018-07-21T06:21:15.209Z,97432.77
2018-07-21T06:21:46.833Z,97428.93
2018-07-21T06:22:18.461Z,97425.09
2018-07-21T06:22:50.105Z,97430.63
2018-07-21T06:23:21.717Z,97425.52
2018-07-21T06:23:53.394Z,97423.81
2018-07-21T06:24:24.994Z,97422.53
2018-07-21T06:24:56.585Z,97430.19
2018-07-21T06:25:28.182Z,97422.52
2018-07-21T06:25:59.829Z,97425.08
2018-07-21T06:26:31.426Z,97429.75
2018-07-21T06:27:03.046Z,97420.81
2018-07-21T06:27:34.679Z,97424.20
2018-07-21T06:28:06.308Z,97425.42
2018-07-21T06:28:37.920Z,97427.98
2018-07-21T06:29:09.542Z,97421.59
2018-07-21T06:29:41.141Z,97421.55
2018-07-21T06:30:12.753Z,97419.64
2018-07-21T06:30:44.403Z,97430.91
2018-07-21T06:31:16.005Z,97424.52
2018-07-21T06:31:47.600Z,97432.58
2018-07-21T06:32:19.211Z,97429.16
2018-07-21T06:32:50.855Z,97429.51
2018-07-21T06:33:22.479Z,97432.48
2018-07-21T06:33:54.101Z,97431.61
2018-07-21T06:34:25.742Z,97432.84
2018-07-21T06:34:57.350Z,97432.38
2018-07-21T06:35:29.020Z,97428.92
2018-07-21T06:36:00.690Z,97428.05
2018-07-21T06:36:32.357Z,97432.70
2018-07-21T06:37:03.980Z,97427.11
2018-07-21T06:37:35.577Z,97428.34
2018-07-21T06:38:07.206Z,97429.56
2018-07-21T06:38:38.784Z,97427.41
2018-07-21T06:39:10.407Z,97433.30
2018-07-21T06:39:42.035Z,97429.00
2018-07-21T06:40:13.640Z,97432.34
2018-07-21T06:40:45.247Z,97430.18
2018-07-21T06:41:16.838Z,97431.39
2018-07-21T06:41:48.456Z,97423.89
2018-07-21T06:42:20.057Z,97433.41
2018-07-21T06:42:51.721Z,97435.89
2018-07-21T06:43:23.350Z,97429.89
2018-07-21T06:43:55.017Z,97427.27
2018-07-21T06:44:26.609Z,97429.81
2018-07-21T06:44:58.188Z,97433.16
2018-07-21T06:45:29.775Z,97431.44
2018-07-21T06:46:01.376Z,97433.05
2018-07-21T06:46:32.969Z,97432.17
2018-07-21T06:47:04.562Z,97438.50
2018-07-21T06:47:36.160Z,97434.63
2018-07-21T06:48:07.811Z,97438.02
2018-07-21T06:48:39.423Z,97433.27
2018-07-21T06:49:11.035Z,97430.27
2018-07-21T06:49:42.676Z,97431.09
2018-07-21T06:50:14.327Z,97430.63
2018-07-21T06:50:45.937Z,97428.03
2018-07-21T06:51:17.563Z,97432.71
2018-07-21T06:51:49.187Z,97433.50
2018-07-21T06:52:20.779Z,97431.36
2018-07-21T06:52:52.417Z,97428.78
2018-07-21T06:53:24.088Z,97430.43
2018-07-21T06:53:55.711Z,97430.39
2018-07-21T06:54:27.364Z,97426.55
2018-07-21T06:54:58.939Z,97426.11
2018-07-21T06:55:30.528Z,97424.02
2018-07-21T06:56:02.205Z,97426.92
2018-07-21T06:56:33.784Z,97426.06
2018-07-21T06:57:05.401Z,97423.48
2018-07-21T06:57:37.005Z,97418.77
2018-07-21T06:58:08.620Z,97422.16
2018-07-21T06:58:40.306Z,97428.51
2018-07-21T06:59:11.929Z,97420.39
2018-07-21T06:59:43.550Z,97421.64
2018-07-21T07:00:15.162Z,97424.19
2018-07-21T07:00:46.769Z,97424.14
2018-07-21T07:01:18.374Z,97424.98
2018-07-21T07:01:49.964Z,97424.56
2018-07-21T07:02:21.885Z,97424.55
2018-07-21T07:02:53.527Z,97424.10
2018-07-21T07:03:25.165Z,97423.69
2018-07-21T07:03:56.767Z,97420.27
2018-07-21T07:04:28.429Z,97424.91
2018-07-21T07:05:00.047Z,97423.61
2018-07-21T07:05:31.975Z,97422.33
2018-07-21T07:06:03.609Z,97419.33
2018-07-21T07:06:35.259Z,97422.31
2018-07-21T07:07:06.898Z,97424.44
2018-07-21T07:07:38.506Z,97428.27
2018-07-21T07:08:10.162Z,97412.30
2018-07-21T07:08:41.787Z,97419.77
2018-07-21T07:09:13.386Z,97423.94
2018-07-21T07:09:45.004Z,97417.96
2018-07-21T07:10:16.626Z,97422.23
2018-07-21T07:10:48.293Z,97420.52
2018-07-21T07:11:19.919Z,97421.80
2018-07-21T07:11:51.515Z,97422.20
2018-07-21T07:12:23.165Z,97426.90
2018-07-21T07:12:54.780Z,97421.34
2018-07-21T07:13:26.390Z,97417.92
2018-07-21T07:13:57.981Z,97424.32
2018-07-21T07:14:29.919Z,97417.87
2018-07-21T07:15:01.537Z,97419.57
2018-07-21T07:15:33.153Z,97425.11
2018-07-21T07:16:04.749Z,97420.41
2018-07-21T07:16:36.353Z,97419.97
2018-07-21T07:17:07.950Z,97425.07
2018-07-21T07:17:39.623Z,97428.44
2018-07-21T07:18:11.241Z,97422.88
2018-07-21T07:18:42.833Z,97425.84
2018-07-21T07:19:14.446Z,97425.44
2018-07-21T07:19:46.046Z,97426.34
2018-07-21T07:20:17.664Z,97425.44
2018-07-21T07:20:49.283Z,97431.41
2018-07-21T07:21:20.892Z,97425.44
2018-07-21T07:21:52.526Z,97424.16
2018-07-21T07:22:24.109Z,97422.88
2018-07-21T07:22:55.707Z,97426.72
2018-07-21T07:23:27.324Z,97425.86
2018-07-21T07:23:58.936Z,97427.98
2018-07-21T07:24:30.547Z,97433.09
2018-07-21T07:25:02.141Z,97424.14
2018-07-21T07:25:33.765Z,97424.92
2018-07-21T07:26:05.380Z,97427.05
2018-07-21T07:26:36.968Z,97428.81
2018-07-21T07:27:08.585Z,97436.50
2018-07-21T07:27:40.177Z,97433.50
2018-07-21T07:28:11.794Z,97433.88
2018-07-21T07:28:43.409Z,97437.34
2018-07-21T07:29:15.027Z,97437.78
2018-07-21T07:29:46.638Z,97438.62
2018-07-21T07:30:18.234Z,97434.36
2018-07-21T07:30:49.814Z,97438.20
2018-07-21T07:31:21.430Z,97444.10
2018-07-21T07:31:53.044Z,97441.11
2018-07-21T07:32:24.637Z,97436.84
2018-07-21T07:32:56.233Z,97441.95
2018-07-21T07:33:27.814Z,97444.08
2018-07-21T07:33:59.425Z,97438.08
2018-07-21T07:34:31.063Z,97440.17
2018-07-21T07:35:02.703Z,97437.59
2018-07-21T07:35:34.329Z,97436.73
2018-07-21T07:36:05.934Z,97443.97
2018-07-21T07:36:37.508Z,97443.11
2018-07-21T07:37:09.485Z,97442.64
2018-07-21T07:37:41.056Z,97437.16
2018-07-21T07:38:12.653Z,97440.06
2018-07-21T07:38:44.313Z,97440.06
2018-07-21T07:39:15.929Z,97437.50
2018-07-21T07:39:47.549Z,97435.81
2018-07-21T07:40:19.222Z,97437.50
2018-07-21T07:40:50.800Z,97439.20
2018-07-21T07:41:22.412Z,97438.80
2018-07-21T07:41:54.242Z,97434.52
2018-07-21T07:42:25.842Z,97440.05
2018-07-21T07:42:57.449Z,97439.19
2018-07-21T07:43:29.049Z,97442.14
2018-07-21T07:44:00.641Z,97432.74
2018-07-21T07:44:32.232Z,97437.00
2018-07-21T07:45:03.845Z,97438.28
2018-07-21T07:45:35.455Z,97438.70
2018-07-21T07:46:07.055Z,97436.98
2018-07-21T07:46:38.649Z,97438.24
2018-07-21T07:47:10.279Z,97434.40
2018-07-21T07:47:41.879Z,97436.48
2018-07-21T07:48:13.502Z,97433.91
2018-07-21T07:48:45.102Z,97431.78
2018-07-21T07:49:16.694Z,97435.17
2018-07-21T07:49:48.295Z,97432.61
2018-07-21T07:50:19.920Z,97440.66
2018-07-21T07:50:51.519Z,97433.03
2018-07-21T07:51:23.172Z,97427.86
2018-07-21T07:51:54.768Z,97434.31
2018-07-21T07:52:26.380Z,97433.03
2018-07-21T07:52:57.992Z,97430.91
2018-07-21T07:53:29.990Z,97431.77
2018-07-21T07:54:01.642Z,97429.20
2018-07-21T07:54:33.243Z,97431.34
2018-07-21T07:55:04.823Z,97429.19
2018-07-21T07:55:36.430Z,97430.03
2018-07-21T07:56:08.024Z,97429.55
2018-07-21T07:56:39.636Z,97429.13
2018-07-21T07:57:11.244Z,97429.13
2018-07-21T07:57:42.838Z,97430.41
2018-07-21T07:58:14.428Z,97432.12
2018-07-21T07:58:46.036Z,97431.25
2018-07-21T07:59:17.662Z,97425.72
2018-07-21T07:59:49.300Z,97429.09
2018-07-21T08:00:20.931Z,97426.53
2018-07-21T08:00:52.516Z,97433.77
2018-07-21T08:01:24.098Z,97424.76
2018-07-21T08:01:55.701Z,97429.49
2018-07-21T08:02:27.304Z,97424.32
2018-07-21T08:02:58.918Z,97426.88
2018-07-21T08:03:30.558Z,97426.88
2018-07-21T08:04:02.192Z,97426.02
2018-07-21T08:04:33.808Z,97430.30
2018-07-21T08:05:05.468Z,97427.80
2018-07-21T08:05:37.119Z,97423.09
2018-07-21T08:06:08.728Z,97428.16
2018-07-21T08:06:40.338Z,97430.30
2018-07-21T08:07:11.940Z,97428.16
2018-07-21T08:07:43.558Z,97426.88
2018-07-21T08:08:15.147Z,97429.44
2018-07-21T08:08:46.749Z,97426.05
2018-07-21T08:09:18.377Z,97423.95
2018-07-21T08:09:49.983Z,97426.95
2018-07-21T08:10:21.646Z,97425.28
2018-07-21T08:10:53.244Z,97424.41
2018-07-21T08:11:24.828Z,97422.34
2018-07-21T08:11:56.412Z,97425.34
2018-07-21T08:12:28.057Z,97421.53
2018-07-21T08:12:59.698Z,97423.25
2018-07-21T08:13:31.315Z,97426.67
2018-07-21T08:14:02.948Z,97425.86
2018-07-21T08:14:34.531Z,97424.59
2018-07-21T08:15:06.584Z,97424.18
2018-07-21T08:15:38.184Z,97423.34
2018-07-21T08:16:09.773Z,97427.60
2018-07-21T08:16:41.397Z,97424.20
2018-07-21T08:17:13.041Z,97430.16
2018-07-21T08:17:44.620Z,97428.05
2018-07-21T08:18:16.370Z,97428.06
2018-07-21T08:18:47.956Z,97423.30
2018-07-21T08:19:19.573Z,97427.14
2018-07-21T08:19:51.217Z,97426.23
2018-07-21T08:20:22.997Z,97422.79
2018-07-21T08:20:54.619Z,97425.37
2018-07-21T08:21:26.234Z,97427.53
2018-07-21T08:21:58.182Z,97425.06
2018-07-21T08:22:29.798Z,97427.53
2018-07-21T08:23:01.398Z,97427.95
2018-07-21T08:23:33.002Z,97421.55
2018-07-21T08:24:04.593Z,97427.95
2018-07-21T08:24:36.214Z,97424.58
2018-07-21T08:25:07.870Z,97426.67
2018-07-21T08:25:39.479Z,97429.23
2018-07-21T08:26:11.079Z,97428.81
2018-07-21T08:26:42.689Z,97430.09
2018-07-21T08:27:14.296Z,97425.79
2018-07-21T08:27:46.149Z,97423.65
2018-07-21T08:28:17.752Z,97426.20
2018-07-21T08:28:49.355Z,97430.91
2018-07-21T08:29:21.025Z,97431.70
2018-07-21T08:29:52.925Z,97430.41
2018-07-21T08:30:24.562Z,97433.39
2018-07-21T08:30:56.181Z,97428.75
2018-07-21T08:31:27.781Z,97430.89
2018-07-21T08:31:59.364Z,97429.55
2018-07-21T08:32:30.977Z,97431.31
2018-07-21T08:33:02.574Z,97429.61
2018-07-21T08:33:34.169Z,97425.77
2018-07-21T08:34:05.787Z,97429.61
2018-07-21T08:34:37.429Z,97424.02
2018-07-21T08:35:09.015Z,97428.27
2018-07-21T08:35:40.649Z,97429.98
2018-07-21T08:36:12.224Z,97428.27
2018-07-21T08:36:43.826Z,97429.11
2018-07-21T08:37:15.414Z,97423.58
2018-07-21T08:37:47.010Z,97426.58
2018-07-21T08:38:18.633Z,97426.13
2018-07-21T08:38:50.253Z,97421.45
2018-07-21T08:39:21.865Z,97424.91
2018-07-21T08:39:53.473Z,97426.99
2018-07-21T08:40:25.065Z,97427.84
2018-07-21T08:40:56.662Z,97429.95
2018-07-21T08:41:28.255Z,97423.97
2018-07-21T08:41:59.881Z,97423.58
2018-07-21T08:42:31.506Z,97430.81
2018-07-21T08:43:03.139Z,97426.13
2018-07-21T08:43:34.741Z,97426.11
2018-07-21T08:44:06.329Z,97428.66
2018-07-21T08:44:37.913Z,97423.97
2018-07-21T08:45:09.569Z,97421.83
2018-07-21T08:45:41.165Z,97424.37
2018-07-21T08:46:12.754Z,97423.91
2018-07-21T08:46:44.369Z,97425.60
2018-07-21T08:47:15.973Z,97423.46
2018-07-21T08:47:47.548Z,97431.56
2018-07-21T08:48:19.161Z,97429.42
2018-07-21T08:48:50.778Z,97431.98
2018-07-21T08:49:22.612Z,97430.28
2018-07-21T08:49:54.282Z,97435.42
2018-07-21T08:50:25.868Z,97429.88
2018-07-21T08:50:57.467Z,97427.32
2018-07-21T08:51:29.082Z,97427.38
2018-07-21T08:52:00.687Z,97429.08
2018-07-21T08:52:32.301Z,97428.66
2018-07-21T08:53:03.917Z,97431.63
2018-07-21T08:53:35.525Z,97427.38
2018-07-21T08:54:07.103Z,97427.80
2018-07-21T08:54:38.706Z,97428.60
2018-07-21T08:55:10.382Z,97432.45
2018-07-21T08:55:42.025Z,97432.91
2018-07-21T08:56:13.622Z,97432.84
2018-07-21T08:56:45.222Z,97431.58
2018-07-21T08:57:16.809Z,97434.14
2018-07-21T08:57:48.412Z,97429.86
2018-07-21T08:58:20.030Z,97432.42
2018-07-21T08:58:51.673Z,97424.73
2018-07-21T08:59:23.281Z,97430.28
2018-07-21T08:59:54.936Z,97430.27
2018-07-21T09:00:26.532Z,97427.26
2018-07-21T09:00:58.152Z,97431.05
2018-07-21T09:01:29.776Z,97433.19
2018-07-21T09:02:01.387Z,97431.10
2018-07-21T09:02:32.981Z,97430.69
2018-07-21T09:03:04.584Z,97428.12
2018-07-21T09:03:36.186Z,97428.98
2018-07-21T09:04:07.783Z,97433.24
2018-07-21T09:04:39.409Z,97430.69
2018-07-21T09:05:11.090Z,97429.40
2018-07-21T09:05:42.673Z,97430.27
2018-07-21T09:06:14.278Z,97432.41
2018-07-21T09:06:45.862Z,97434.97
2018-07-21T09:07:17.454Z,97429.34
2018-07-21T09:07:49.058Z,97431.10
2018-07-21T09:08:20.684Z,97429.82
2018-07-21T09:08:52.297Z,97433.66
2018-07-21T09:09:23.914Z,97440.50
2018-07-21T09:09:55.530Z,97431.10
2018-07-21T09:10:27.265Z,97434.08
2018-07-21T09:10:58.861Z,97432.38
2018-07-21T09:11:30.439Z,97434.88
2018-07-21T09:12:02.282Z,97437.02
2018-07-21T09:12:33.939Z,97431.89
2018-07-21T09:13:05.569Z,97431.45
2018-07-21T09:13:37.188Z,97436.17
2018-07-21T09:14:08.794Z,97425.06
2018-07-21T09:14:40.408Z,97430.63
2018-07-21T09:15:12.037Z,97424.23
2018-07-21T09:15:43.693Z,97430.19
2018-07-21T09:16:15.305Z,97426.84
2018-07-21T09:16:46.917Z,97420.78
2018-07-21T09:17:18.590Z,97430.59
2018-07-21T09:17:50.209Z,97422.92
2018-07-21T09:18:21.809Z,97431.47
2018-07-21T09:18:53.420Z,97428.89
2018-07-21T09:19:25.037Z,97423.34
2018-07-21T09:19:56.658Z,97429.28
2018-07-21T09:20:28.250Z,97423.27
2018-07-21T09:20:59.873Z,97434.80
2018-07-21T09:21:31.505Z,97427.95
2018-07-21T09:22:03.106Z,97424.97
2018-07-21T09:22:34.707Z,97425.83
2018-07-21T09:23:06.322Z,97423.69
2018-07-21T09:23:37.994Z,97427.52
2018-07-21T09:24:09.619Z,97426.67
2018-07-21T09:24:41.256Z,97419.41
2018-07-21T09:25:12.862Z,97426.67
2018-07-21T09:25:44.497Z,97430.52
2018-07-21T09:26:16.093Z,97421.55
2018-07-21T09:26:47.672Z,97425.39
2018-07-21T09:27:19.261Z,97425.37
2018-07-21T09:27:50.880Z,97427.09
2018-07-21T09:28:22.478Z,97426.66
2018-07-21T09:28:54.096Z,97421.55
2018-07-21T09:29:25.680Z,97428.77
2018-07-21T09:29:57.267Z,97425.37
2018-07-21T09:30:28.898Z,97425.80
2018-07-21T09:31:00.515Z,97429.22
2018-07-21T09:31:32.503Z,97424.95
2018-07-21T09:32:04.113Z,97425.80
2018-07-21T09:32:35.721Z,97429.61
2018-07-21T09:33:07.325Z,97425.80
2018-07-21T09:33:38.917Z,97427.05
2018-07-21T09:34:10.555Z,97427.47
2018-07-21T09:34:42.113Z,97423.21
2018-07-21T09:35:13.725Z,97421.93
2018-07-21T09:35:45.365Z,97429.20
2018-07-21T09:36:16.994Z,97423.21
2018-07-21T09:36:48.569Z,97424.91
2018-07-21T09:37:20.165Z,97422.34
2018-07-21T09:37:51.749Z,97424.91
2018-07-21T09:38:23.341Z,97422.80
2018-07-21T09:38:54.998Z,97421.45
2018-07-21T09:39:26.591Z,97422.34
2018-07-21T09:39:58.189Z,97416.39
2018-07-21T09:40:29.796Z,97417.27
2018-07-21T09:41:01.434Z,97420.23
2018-07-21T09:41:33.040Z,97420.66
2018-07-21T09:42:04.666Z,97418.90
2018-07-21T09:42:36.261Z,97419.31
2018-07-21T09:43:07.864Z,97427.42
2018-07-21T09:43:39.526Z,97418.02
2018-07-21T09:44:11.113Z,97421.86
2018-07-21T09:44:42.710Z,97420.14
2018-07-21T09:45:14.330Z,97417.58
2018-07-21T09:45:45.949Z,97418.83
2018-07-21T09:46:17.552Z,97420.55
2018-07-21T09:46:49.144Z,97420.12
2018-07-21T09:47:20.733Z,97418.41
2018-07-21T09:47:52.346Z,97416.69
2018-07-21T09:48:23.977Z,97413.24
2018-07-21T09:48:55.596Z,97416.64
2018-07-21T09:49:27.201Z,97420.05
2018-07-21T09:49:58.800Z,97415.00
2018-07-21T09:50:30.441Z,97420.02
2018-07-21T09:51:02.079Z,97417.45
2018-07-21T09:51:33.966Z,97418.30
2018-07-21T09:52:05.586Z,97418.69
2018-07-21T09:52:37.260Z,97420.86
2018-07-21T09:53:08.874Z,97416.18
2018-07-21T09:53:40.515Z,97420.81
2018-07-21T09:54:12.157Z,97418.30
2018-07-21T09:54:43.764Z,97411.42
2018-07-21T09:55:15.355Z,97411.84
2018-07-21T09:55:47.053Z,97406.72
2018-07-21T09:56:18.642Z,97414.41
2018-07-21T09:56:50.247Z,97412.69
2018-07-21T09:57:21.855Z,97408.94
2018-07-21T09:57:53.493Z,97404.58
2018-07-21T09:58:25.077Z,97409.28
2018-07-21T09:58:56.748Z,97408.00
2018-07-21T09:59:28.356Z,97414.83
2018-07-21T09:59:59.970Z,97411.41
2018-07-21T10:00:31.630Z,97410.13
2018-07-21T10:01:03.307Z,97418.25
2018-07-21T10:01:34.994Z,97418.67
2018-07-21T10:02:06.609Z,97409.70
2018-07-21T10:02:38.219Z,97406.72
2018-07-21T10:03:09.844Z,97411.83
2018-07-21T10:03:41.453Z,97407.98
2018-07-21T10:04:13.041Z,97409.27
2018-07-21T10:04:44.662Z,97410.97
2018-07-21T10:05:16.312Z,97404.98
2018-07-21T10:05:47.909Z,97410.52
2018-07-21T10:06:19.547Z,97409.19
2018-07-21T10:06:51.160Z,97410.47
2018-07-21T10:07:22.805Z,97405.34
2018-07-21T10:07:54.405Z,97406.61
2018-07-21T10:08:26.408Z,97404.05
2018-07-21T10:08:58.005Z,97415.15
2018-07-21T10:09:29.601Z,97406.23
2018-07-21T10:10:01.198Z,97411.73
2018-07-21T10:10:32.792Z,97407.91
2018-07-21T10:11:04.423Z,97413.88
2018-07-21T10:11:36.045Z,97405.77
2018-07-21T10:12:07.650Z,97412.17
2018-07-21T10:12:39.589Z,97412.17
2018-07-21T10:13:11.258Z,97409.61
2018-07-21T10:13:42.855Z,97413.84
2018-07-21T10:14:14.450Z,97413.84
2018-07-21T10:14:46.069Z,97411.73
2018-07-21T10:15:17.658Z,97411.73
2018-07-21T10:15:49.329Z,97412.56
2018-07-21T10:16:20.927Z,97412.13
2018-07-21T10:16:52.534Z,97413.83
2018-07-21T10:17:24.148Z,97413.39
2018-07-21T10:17:55.750Z,97413.77
2018-07-21T10:18:27.346Z,97413.33
2018-07-21T10:18:58.933Z,97412.05
2018-07-21T10:19:30.533Z,97408.65
2018-07-21T10:20:02.112Z,97398.39
2018-07-21T10:20:33.733Z,97406.93
2018-07-21T10:21:05.396Z,97408.19
2018-07-21T10:21:36.980Z,97407.33
2018-07-21T10:22:08.628Z,97409.89
2018-07-21T10:22:40.222Z,97409.03
2018-07-21T10:23:11.850Z,97400.92
2018-07-21T10:23:43.878Z,97405.62
2018-07-21T10:24:15.503Z,97403.05
2018-07-21T10:24:47.111Z,97404.33
2018-07-21T10:25:35.474Z,97395.36
2018-07-21T10:27:10.776Z,97406.89
2018-07-21T10:27:42.390Z,97400.48
2018-07-21T10:28:14.040Z,97402.20
2018-07-21T10:29:02.562Z,97406.47
2018-07-21T10:29:34.162Z,97401.34
2018-07-21T10:30:05.824Z,97408.16
2018-07-21T10:30:37.413Z,97403.47
2018-07-21T10:31:09.025Z,97398.39
2018-07-21T10:31:42.590Z,97403.05
2018-07-21T10:32:14.490Z,97403.05
2018-07-21T10:32:46.121Z,97403.85
2018-07-21T10:33:17.724Z,97400.84
2018-07-21T10:33:49.945Z,97405.55
2018-07-21T10:34:21.529Z,97399.98
2018-07-21T10:34:53.149Z,97399.98
2018-07-21T10:35:24.749Z,97400.39
2018-07-21T10:35:56.399Z,97404.34
2018-07-21T10:36:27.969Z,97403.37
2018-07-21T10:36:59.560Z,97408.91
2018-07-21T10:37:31.163Z,97399.11
2018-07-21T10:38:02.787Z,97401.65
2018-07-21T10:38:34.722Z,97402.03
2018-07-21T10:39:06.342Z,97403.31
2018-07-21T10:39:37.941Z,97403.31
2018-07-21T10:40:09.817Z,97404.59
2018-07-21T10:40:41.478Z,97404.20
2018-07-21T10:41:13.110Z,97402.45
2018-07-21T10:41:44.711Z,97399.95
2018-07-21T10:42:16.326Z,97402.93
2018-07-21T10:42:47.920Z,97402.09
2018-07-21T10:43:19.577Z,97400.75
2018-07-21T10:43:51.173Z,97399.03
2018-07-21T10:44:22.756Z,97400.73
2018-07-21T10:44:54.382Z,97403.73
2018-07-21T10:45:26.323Z,97397.75
2018-07-21T10:45:57.926Z,97396.89
2018-07-21T10:46:29.546Z,97395.19
2018-07-21T10:47:01.129Z,97396.03
2018-07-21T10:47:32.714Z,97392.19
2018-07-21T10:48:04.348Z,97392.19
2018-07-21T10:48:35.974Z,97394.73
2018-07-21T10:49:07.574Z,97391.79
2018-07-21T10:49:39.183Z,97392.61
2018-07-21T10:50:10.798Z,97392.16
2018-07-21T10:50:42.425Z,97396.01
2018-07-21T10:51:14.036Z,97393.05
2018-07-21T10:51:45.664Z,97395.59
2018-07-21T10:52:17.285Z,97393.87
2018-07-21T10:52:48.882Z,97391.30
2018-07-21T10:53:20.480Z,97393.42
2018-07-21T10:53:52.306Z,97391.25
2018-07-21T10:54:23.929Z,97389.16
2018-07-21T10:54:55.601Z,97393.42
2018-07-21T10:55:27.219Z,97391.23
2018-07-21T10:55:58.803Z,97386.95
2018-07-21T10:56:30.699Z,97391.20
2018-07-21T10:57:02.312Z,97389.48
2018-07-21T10:57:33.942Z,97390.34
2018-07-21T10:58:05.596Z,97385.46
2018-07-21T10:58:37.450Z,97391.57
2018-07-21T10:59:09.133Z,97389.02
2018-07-21T10:59:40.755Z,97390.77
2018-07-21T11:00:12.409Z,97387.73
2018-07-21T11:00:44.022Z,97391.13
2018-07-21T11:01:15.630Z,97387.71
2018-07-21T11:01:47.223Z,97388.55
2018-07-21T11:02:18.877Z,97389.83
2018-07-21T11:02:50.485Z,97388.11
2018-07-21T11:03:22.096Z,97386.83
2018-07-21T11:03:53.697Z,97388.97
2018-07-21T11:04:25.290Z,97389.83
2018-07-21T11:04:56.906Z,97382.56
2018-07-21T11:05:28.550Z,97385.13
2018-07-21T11:06:00.160Z,97376.18
2018-07-21T11:06:31.784Z,97380.42
2018-07-21T11:07:03.405Z,97392.81
2018-07-21T11:07:35.016Z,97386.83
2018-07-21T11:08:06.673Z,97388.09
2018-07-21T11:08:38.284Z,97380.84
2018-07-21T11:09:09.905Z,97381.26
2018-07-21T11:09:41.530Z,97381.68
2018-07-21T11:10:13.157Z,97379.48
2018-07-21T11:10:44.819Z,97382.91
2018-07-21T11:11:16.456Z,97380.79
2018-07-21T11:11:48.049Z,97384.19
2018-07-21T11:12:19.660Z,97378.65
2018-07-21T11:12:51.326Z,97377.36
2018-07-21T11:13:22.927Z,97376.50
2018-07-21T11:13:54.536Z,97376.48
2018-07-21T11:14:26.154Z,97379.46
2018-07-21T11:14:57.753Z,97371.44
2018-07-21T11:15:29.386Z,97376.88
2018-07-21T11:16:00.981Z,97377.73
2018-07-21T11:16:32.603Z,97368.77
2018-07-21T11:17:04.193Z,97373.45
2018-07-21T11:17:35.816Z,97370.05
2018-07-21T11:18:07.472Z,97373.48
2018-07-21T11:18:39.114Z,97377.30
2018-07-21T11:19:10.722Z,97375.55
2018-07-21T11:19:42.319Z,97370.42
2018-07-21T11:20:13.922Z,97370.42
2018-07-21T11:20:45.500Z,97370.42
2018-07-21T11:21:17.126Z,97367.41
2018-07-21T11:21:48.727Z,97371.26
2018-07-21T11:22:20.345Z,97367.39
2018-07-21T11:22:51.972Z,97366.48
2018-07-21T11:23:23.615Z,97366.03
2018-07-21T11:23:55.236Z,97361.36
2018-07-21T11:24:26.823Z,97361.77
2018-07-21T11:24:58.452Z,97355.79
2018-07-21T11:25:30.120Z,97358.80
2018-07-21T11:26:01.962Z,97354.95
2018-07-21T11:26:33.609Z,97357.48
2018-07-21T11:27:05.238Z,97357.88
2018-07-21T11:27:36.902Z,97362.57
2018-07-21T11:28:08.580Z,97360.45
2018-07-21T11:28:40.221Z,97358.75